Time;durP1;ratioP1;P1;durP2;ratioP2;P2;SDS_P1;SDS_P2;PMS_P1;PMS_P2;Temp;Humidity;BMP_temperature;BMP_pressure;BME280_temperature;BME280_humidity;BME280_pressure;Samples;Min_cycle;Max_cycle;Signal;HPM_P1;HPM_P2
2021/03/20 00:01:22;;;;;;;7.32;3.83;;;;;;;0.79;52.84;100604.38;4994542;28;20050;-72
2021/03/20 00:03:48;;;;;;;6.22;3.58;;;;;;;0.81;52.80;100598.34;4994865;28;20132;-73
2021/03/20 00:06:16;;;;;;;6.88;3.33;;;;;;;0.82;52.79;100600.09;4993629;28;20532;-72
2021/03/20 00:08:43;;;;;;;7.90;3.78;;;;;;;0.87;52.80;100603.59;4993823;28;20062;-72
2021/03/20 00:11:10;;;;;;;8.52;4.40;;;;;;;0.91;53.05;100604.47;4993591;28;20562;-73
2021/03/20 00:13:37;;;;;;;5.88;3.17;;;;;;;0.94;52.65;100606.19;4992668;28;20133;-71
2021/03/20 00:16:04;;;;;;;9.90;3.92;;;;;;;0.96;52.42;100607.94;4993875;28;20506;-72
2021/03/20 00:18:30;;;;;;;7.15;3.72;;;;;;;0.98;52.47;100611.38;4994619;28;20569;-71
2021/03/20 00:20:57;;;;;;;9.75;4.57;;;;;;;0.97;52.66;100609.66;4993920;28;20406;-72
2021/03/20 00:23:24;;;;;;;10.43;4.63;;;;;;;0.95;52.60;100598.47;4994550;28;20081;-73
2021/03/20 00:25:50;;;;;;;8.73;4.28;;;;;;;0.98;52.28;100615.69;4994128;28;20510;-73
2021/03/20 00:28:21;;;;;;;5.88;3.58;;;;;;;0.95;52.33;100611.38;4993988;28;20141;-72
2021/03/20 00:30:51;;;;;;;4.95;3.30;;;;;;;0.96;52.19;100614.81;4994258;28;20054;-72
2021/03/20 00:33:17;;;;;;;7.07;3.75;;;;;;;0.97;52.32;100608.78;4994272;28;20081;-71
2021/03/20 00:35:44;;;;;;;6.47;4.30;;;;;;;0.98;52.22;100610.50;4994142;28;20097;-73
2021/03/20 00:38:11;;;;;;;11.25;4.13;;;;;;;0.96;52.12;100617.38;4994014;28;20145;-72
2021/03/20 00:40:37;;;;;;;8.15;4.25;;;;;;;0.97;52.28;100613.97;4994013;28;20050;-73
2021/03/20 00:43:03;;;;;;;7.18;4.10;;;;;;;0.97;52.23;100619.13;4993785;28;20386;-72
2021/03/20 00:45:32;;;;;;;9.80;5.03;;;;;;;1.00;52.25;100613.97;4991706;28;20078;-73
2021/03/20 00:48:06;;;;;;;11.55;4.78;;;;;;;0.91;52.32;100613.06;4992856;28;20141;-73
2021/03/20 00:50:32;;;;;;;15.77;6.55;;;;;;;0.97;52.18;100616.53;4988674;28;20150;-73
2021/03/20 00:52:58;;;;;;;18.30;7.38;;;;;;;0.96;52.19;100617.38;4992939;28;20469;-73
2021/03/20 00:55:24;;;;;;;11.93;5.35;;;;;;;0.92;52.11;100619.09;4993362;28;20085;-72
2021/03/20 00:57:50;;;;;;;11.55;4.78;;;;;;;0.94;52.14;100613.94;4993028;28;20096;-72
2021/03/20 01:00:20;;;;;;;13.35;5.00;;;;;;;0.93;52.00;100622.53;4993810;28;20157;-72
2021/03/20 01:02:46;;;;;;;10.13;5.68;;;;;;;0.96;51.85;100612.22;4993367;28;20046;-73
2021/03/20 01:05:14;;;;;;;13.45;5.35;;;;;;;0.93;51.92;100615.66;4993285;28;20293;-72
2021/03/20 01:07:41;;;;;;;12.13;4.60;;;;;;;0.85;51.86;100620.78;4993273;28;20089;-72
2021/03/20 01:10:09;;;;;;;9.70;4.85;;;;;;;0.77;52.11;100608.66;4993373;28;20193;-73
2021/03/20 01:12:35;;;;;;;13.02;5.45;;;;;;;0.69;52.05;100611.19;4992911;28;20465;-72
2021/03/20 01:15:01;;;;;;;10.30;6.05;;;;;;;0.58;52.30;100615.38;4993521;28;20056;-73
2021/03/20 01:17:27;;;;;;;13.32;6.43;;;;;;;0.46;52.57;100612.72;4993032;28;20137;-73
2021/03/20 01:19:53;;;;;;;11.82;5.00;;;;;;;0.35;52.43;100617.78;4993481;28;20077;-72
2021/03/20 01:22:20;;;;;;;10.65;5.57;;;;;;;0.24;52.84;100614.25;4993608;28;20039;-73
2021/03/20 01:24:46;;;;;;;9.65;4.72;;;;;;;0.13;53.17;100610.69;4994804;28;20484;-72
2021/03/20 01:27:13;;;;;;;12.15;5.57;;;;;;;-0.03;53.22;100609.66;4995903;28;20090;-73
2021/03/20 01:29:39;;;;;;;10.60;5.95;;;;;;;-0.20;53.50;100614.66;4993488;28;20116;-73
2021/03/20 01:32:05;;;;;;;10.93;5.55;;;;;;;-0.38;53.65;100615.31;4993076;28;20090;-73
2021/03/20 01:34:31;;;;;;;8.85;4.55;;;;;;;-0.53;53.94;100606.53;4992908;28;20085;-73
2021/03/20 01:36:57;;;;;;;10.13;4.85;;;;;;;-0.69;53.93;100611.50;4992471;28;20057;-73
2021/03/20 01:39:24;;;;;;;9.65;4.97;;;;;;;-0.81;53.81;100620.78;4992975;28;20046;-73
2021/03/20 01:41:50;;;;;;;10.35;4.88;;;;;;;-0.91;54.08;100624.91;4992805;28;20474;-73
2021/03/20 01:44:18;;;;;;;10.52;4.57;;;;;;;-1.01;54.15;100623.94;4992545;28;20073;-72
2021/03/20 01:46:49;;;;;;;11.02;4.82;;;;;;;-1.12;54.22;100625.47;4992476;28;20570;-72
2021/03/20 01:49:24;;;;;;;;;;;;;;;-1.07;54.03;100622.97;4993004;28;20054;-72
2021/03/20 01:52:02;;;;;;;14.45;6.25;;;;;;;-1.35;54.35;100622.56;4992677;28;19968;-72
2021/03/20 01:54:37;;;;;;;11.65;5.68;;;;;;;-1.45;54.20;100624.97;4991209;28;20034;-72
2021/03/20 01:57:04;;;;;;;19.20;7.13;;;;;;;-1.47;54.50;100631.75;4990226;28;20429;-73
2021/03/20 01:59:31;;;;;;;12.82;5.57;;;;;;;-1.54;54.47;100631.66;4991870;28;20132;-73
2021/03/20 02:01:57;;;;;;;16.70;6.45;;;;;;;-1.60;54.58;100635.84;4992680;28;20092;-73
2021/03/20 02:04:23;;;;;;;12.50;4.93;;;;;;;-1.67;54.57;100631.44;4993999;28;20061;-73
2021/03/20 02:06:50;;;;;;;11.95;5.32;;;;;;;-1.76;54.67;100627.00;4999196;28;20057;-73
2021/03/20 02:09:16;;;;;;;10.30;5.00;;;;;;;-1.81;54.72;100633.78;4993349;28;20133;-72
2021/03/20 02:11:53;;;;;;;12.10;5.15;;;;;;;-1.89;54.83;100637.91;4992224;28;20140;-72
2021/03/20 02:14:34;;;;;;;9.25;5.43;;;;;;;-1.96;54.77;100642.06;4992474;28;20132;-73
2021/03/20 02:17:05;;;;;;;9.20;5.03;;;;;;;-1.99;54.88;100644.59;4992442;28;20085;-73
2021/03/20 02:19:50;;;;;;;13.95;5.47;;;;;;;-2.08;55.10;100646.09;4992205;28;20069;-72
2021/03/20 02:22:21;;;;;;;11.75;5.45;;;;;;;-2.10;55.11;100650.34;4991067;28;20055;-72
2021/03/20 02:25:17;;;;;;;12.63;5.78;;;;;;;-2.12;55.09;100657.16;4992469;28;20089;-72
2021/03/20 02:28:10;;;;;;;10.13;5.55;;;;;;;-2.15;55.21;100663.97;4991915;28;20181;-74
2021/03/20 02:31:12;;;;;;;15.02;5.75;;;;;;;-2.20;55.33;100657.88;4991289;28;20109;-73
2021/03/20 02:33:49;;;;;;;8.63;4.97;;;;;;;-2.23;55.04;100657.84;4992531;28;20475;-73
2021/03/20 02:36:28;;;;;;;9.60;5.00;;;;;;;-2.25;55.36;100668.91;4992138;28;20474;-73
2021/03/20 02:39:00;;;;;;;11.88;5.70;;;;;;;-2.25;55.17;100659.50;4998448;28;20061;-73
2021/03/20 02:41:31;;;;;;;14.85;5.82;;;;;;;-2.28;55.30;100664.59;4998360;28;20080;-72
2021/03/20 02:44:08;;;;;;;13.13;5.68;;;;;;;-2.35;55.39;100655.00;4998952;28;20145;-72
2021/03/20 02:46:38;;;;;;;10.15;5.00;;;;;;;-2.39;55.70;100660.91;4998343;28;20430;-73
2021/03/20 02:49:13;;;;;;;12.07;4.88;;;;;;;-2.44;55.71;100659.09;4998406;28;20072;-72
2021/03/20 02:51:47;;;;;;;10.80;5.13;;;;;;;-2.47;55.59;100662.47;4998394;28;20062;-73
2021/03/20 02:54:19;;;;;;;9.02;5.22;;;;;;;-2.50;55.62;100667.53;4998711;28;20152;-72
2021/03/20 02:56:53;;;;;;;12.18;5.75;;;;;;;-2.54;55.88;100673.44;4999282;28;20049;-72
2021/03/20 02:59:22;;;;;;;12.50;5.78;;;;;;;-2.54;55.81;100673.44;4998159;28;20050;-72
2021/03/20 03:01:51;;;;;;;10.88;5.53;;;;;;;-2.60;55.88;100675.88;4997335;28;20066;-72
2021/03/20 03:04:22;;;;;;;14.73;5.60;;;;;;;-2.63;55.86;100678.38;4998238;28;20467;-72
2021/03/20 03:06:55;;;;;;;13.48;5.82;;;;;;;-2.63;55.85;100678.38;4998310;28;20046;-73
2021/03/20 03:09:27;;;;;;;11.63;5.63;;;;;;;-2.66;56.08;100686.03;4998007;28;20150;-72
2021/03/20 03:11:58;;;;;;;10.20;5.47;;;;;;;-2.67;56.08;100684.28;4998588;28;20082;-72
2021/03/20 03:14:30;;;;;;;12.85;5.60;;;;;;;-2.67;56.01;100685.16;4998382;28;20057;-73
2021/03/20 03:16:59;;;;;;;11.60;5.60;;;;;;;-2.69;56.05;100691.94;4997809;28;20046;-73
2021/03/20 03:19:31;;;;;;;13.68;5.45;;;;;;;-2.69;56.23;100691.09;4998309;28;20081;-73
2021/03/20 03:22:01;;;;;;;12.48;6.05;;;;;;;-2.73;56.20;100695.25;4998088;28;20398;-73
2021/03/20 03:24:29;;;;;;;13.57;5.35;;;;;;;-2.76;56.34;100701.19;4998310;28;20561;-73
2021/03/20 03:26:59;;;;;;;12.50;5.95;;;;;;;-2.77;56.33;100699.47;4996839;28;20057;-72
2021/03/20 03:29:28;;;;;;;16.85;5.90;;;;;;;-2.79;56.35;100698.56;4998189;28;20174;-74
2021/03/20 03:32:04;;;;;;;12.88;5.68;;;;;;;-2.85;56.61;100703.56;4987399;28;20318;-72
2021/03/20 03:34:39;;;;;;;9.85;5.93;;;;;;;-2.86;56.54;100709.53;4997598;28;20137;-72
2021/03/20 03:37:10;;;;;;;15.73;6.43;;;;;;;-2.89;56.62;100699.19;4997963;28;20144;-73
2021/03/20 03:39:43;;;;;;;16.52;7.28;;;;;;;-2.93;56.56;100707.63;4998212;28;20569;-73
2021/03/20 03:42:12;;;;;;;14.45;7.28;;;;;;;-2.94;56.78;100708.47;4998127;28;20085;-73
2021/03/20 03:44:41;;;;;;;17.45;7.68;;;;;;;-2.95;56.82;100709.28;4998144;28;20057;-73
2021/03/20 03:47:08;;;;;;;14.90;6.88;;;;;;;-2.96;56.85;100716.97;4997826;28;20145;-72
2021/03/20 03:49:35;;;;;;;10.65;5.72;;;;;;;-2.99;56.92;100715.19;4994510;28;20480;-72
2021/03/20 03:52:03;;;;;;;11.93;6.30;;;;;;;-3.01;56.92;100711.72;4994739;28;20050;-72
2021/03/20 03:54:29;;;;;;;12.13;5.43;;;;;;;-3.03;57.08;100718.53;4994533;28;20050;-72
2021/03/20 03:57:22;;;;;;;15.65;6.68;;;;;;;-3.11;57.47;100718.34;4992830;28;20057;-72
2021/03/20 03:59:59;;;;;;;16.25;5.88;;;;;;;-3.13;57.27;100721.69;4994161;28;20104;-72
2021/03/20 04:02:53;;;;;;;14.65;6.15;;;;;;;-3.17;57.39;100717.31;4994464;28;20050;-72
2021/03/20 04:05:25;;;;;;;15.18;6.82;;;;;;;-3.20;57.32;100722.38;4981765;28;20086;-71
2021/03/20 04:08:01;;;;;;;;;;;;;;;-3.09;56.98;100718.38;4995097;28;20054;-72
2021/03/20 04:10:33;;;;;;;9.38;5.30;;;;;;;-3.28;57.18;100723.88;4994351;28;19976;-73
2021/03/20 04:13:08;;;;;;;11.90;6.18;;;;;;;-3.34;57.51;100718.59;4994706;28;20053;-72
2021/03/20 04:15:54;;;;;;;12.88;5.30;;;;;;;-3.38;57.43;100727.91;4994115;28;20458;-72
2021/03/20 04:18:30;;;;;;;13.95;5.38;;;;;;;-3.40;57.65;100722.72;4994533;28;20645;-73
2021/03/20 04:21:08;;;;;;;12.30;6.68;;;;;;;-3.40;57.54;100721.88;4994265;28;20062;-73
2021/03/20 04:23:39;;;;;;;16.38;6.05;;;;;;;-3.39;57.64;100732.16;4993974;28;20177;-73
2021/03/20 04:26:11;;;;;;;12.57;6.05;;;;;;;-3.41;57.52;100728.69;4994383;28;20073;-72
2021/03/20 04:28:48;;;;;;;11.52;5.28;;;;;;;-3.44;57.63;100723.50;4994527;28;20055;-72
2021/03/20 04:31:20;;;;;;;12.52;6.43;;;;;;;-3.45;57.72;100729.44;4992036;28;20056;-72
2021/03/20 04:33:51;;;;;;;16.30;5.80;;;;;;;-3.45;57.85;100731.16;4993380;28;20113;-72
2021/03/20 04:36:22;;;;;;;12.80;6.15;;;;;;;-3.49;57.79;100735.34;4993514;28;20089;-73
2021/03/20 04:38:49;;;;;;;13.02;6.32;;;;;;;-3.44;57.74;100741.44;4993603;28;20073;-72
2021/03/20 04:41:17;;;;;;;9.15;5.35;;;;;;;-3.47;57.75;100732.81;4998446;28;20082;-72
2021/03/20 04:43:44;;;;;;;13.20;5.43;;;;;;;-3.49;57.85;100734.47;4993708;28;20149;-73
2021/03/20 04:46:16;;;;;;;17.55;5.68;;;;;;;-3.51;58.04;100737.00;4993568;28;20088;-73
2021/03/20 04:48:45;;;;;;;11.10;5.72;;;;;;;-3.48;57.88;100742.19;4994053;28;20453;-73
2021/03/20 04:51:30;;;;;;;16.05;5.45;;;;;;;-3.49;58.14;100745.59;4993693;28;20057;-73
2021/03/20 04:54:05;;;;;;;10.48;5.40;;;;;;;-3.48;57.90;100747.31;4994194;28;20056;-73
2021/03/20 04:56:37;;;;;;;13.15;6.13;;;;;;;-3.47;58.12;100749.06;4993641;28;20054;-72
2021/03/20 04:59:09;;;;;;;12.32;5.38;;;;;;;-3.45;58.05;100747.38;4992349;28;20053;-72
2021/03/20 05:01:42;;;;;;;12.05;6.03;;;;;;;-3.41;58.03;100750.91;4992485;28;20046;-74
2021/03/20 05:04:21;;;;;;;11.32;5.97;;;;;;;-3.41;57.92;100751.75;4993699;28;20050;-72
2021/03/20 05:06:49;;;;;;;16.58;6.68;;;;;;;-3.35;57.76;100752.75;4993362;28;20046;-72
2021/03/20 05:09:20;;;;;;;15.27;7.15;;;;;;;-3.32;58.00;100758.84;4993288;28;20109;-72
2021/03/20 05:11:51;;;;;;;18.13;7.38;;;;;;;-3.27;57.91;100756.38;4993476;28;20077;-73
2021/03/20 05:14:26;;;;;;;13.70;7.03;;;;;;;-3.23;57.78;100758.19;4993469;28;20474;-72
2021/03/20 05:16:54;;;;;;;13.43;6.38;;;;;;;-3.18;57.80;100767.72;4991950;28;20065;-73
2021/03/20 05:19:22;;;;;;;13.25;5.93;;;;;;;-3.13;57.73;100766.13;4993164;28;20046;-72
2021/03/20 05:21:51;;;;;;;13.93;6.32;;;;;;;-3.04;57.44;100770.66;4994960;28;20076;-72
2021/03/20 05:24:24;;;;;;;13.70;6.68;;;;;;;-2.97;57.69;100767.41;4994880;28;20074;-73
2021/03/20 05:26:51;;;;;;;12.27;6.40;;;;;;;-2.85;57.62;100777.09;4993488;28;20108;-72
2021/03/20 05:29:18;;;;;;;11.13;6.78;;;;;;;-2.41;57.09;100779.84;4992997;28;20524;-72
2021/03/20 05:31:44;;;;;;;11.68;6.88;;;;;;;-1.86;56.36;100792.16;4992836;28;20042;-73
2021/03/20 05:34:17;;;;;;;15.50;6.68;;;;;;;-1.44;56.05;100796.41;4993129;28;20086;-72
2021/03/20 05:36:43;;;;;;;14.20;7.13;;;;;;;-1.01;55.39;100791.22;4992570;28;20402;-72
2021/03/20 05:39:10;;;;;;;17.15;8.15;;;;;;;-0.70;55.11;100792.56;4992736;28;20409;-72
2021/03/20 05:41:49;;;;;;;18.15;9.00;;;;;;;-0.21;54.65;100789.84;4992811;28;20078;-72
2021/03/20 05:44:20;;;;;;;14.75;9.35;;;;;;;0.48;53.71;100789.88;4992009;28;20101;-72
2021/03/20 05:46:57;;;;;;;17.10;9.50;;;;;;;1.04;52.98;100796.44;4991567;28;20042;-71
2021/03/20 05:49:41;;;;;;;13.75;7.28;;;;;;;1.12;53.30;100794.81;4992348;28;20526;-72
2021/03/20 05:52:25;;;;;;;17.38;7.43;;;;;;;0.89;53.90;100795.47;4991618;28;20153;-73
2021/03/20 05:55:22;;;;;;;15.02;7.57;;;;;;;1.29;53.51;100801.00;4992635;28;20043;-73
2021/03/20 05:58:00;;;;;;;17.50;10.00;;;;;;;1.44;53.02;100801.09;4986679;28;20078;-73
2021/03/20 06:00:32;;;;;;;15.50;8.30;;;;;;;1.65;52.51;100804.69;4995606;28;20121;-73
2021/03/20 06:03:20;;;;;;;16.40;9.15;;;;;;;2.05;52.02;100809.22;4993491;28;20054;-73
2021/03/20 06:05:51;;;;;;;14.95;8.98;;;;;;;2.27;51.50;100804.16;4993763;28;20109;-73
2021/03/20 06:08:38;;;;;;;18.33;9.23;;;;;;;2.29;51.55;100812.78;4993095;28;20093;-73
2021/03/20 06:11:18;;;;;;;19.10;8.32;;;;;;;2.11;51.81;100809.28;4990739;28;20076;-72
2021/03/20 06:14:05;;;;;;;14.95;8.90;;;;;;;2.66;51.06;100806.88;4987253;28;20145;-73
2021/03/20 06:16:35;;;;;;;16.42;9.32;;;;;;;3.24;49.63;100804.38;4989891;28;20417;-72
2021/03/20 06:19:40;;;;;;;20.90;9.07;;;;;;;3.15;49.72;100803.53;4995579;28;20058;-72
2021/03/20 06:22:37;;;;;;;20.77;7.78;;;;;;;3.00;50.11;100814.75;4957350;28;20154;-72
2021/03/20 06:25:50;;;;;;;16.60;8.50;;;;;;;3.10;49.95;100805.22;4992376;28;20058;-73
2021/03/20 06:28:23;;;;;;;16.27;7.78;;;;;;;3.68;48.30;100808.69;4992274;28;20120;-73
2021/03/20 06:30:55;;;;;;;13.30;6.45;;;;;;;4.29;47.33;100803.34;4991951;28;20050;-72
2021/03/20 06:33:26;;;;;;;14.93;7.25;;;;;;;4.97;46.05;100812.50;4992391;28;20050;-72
2021/03/20 06:35:56;;;;;;;16.25;7.97;;;;;;;5.61;45.23;100813.72;4993619;28;20054;-74
2021/03/20 06:38:30;;;;;;;15.85;8.07;;;;;;;6.41;44.27;100818.09;4991604;28;20051;-73
2021/03/20 06:41:07;;;;;;;14.27;7.47;;;;;;;7.40;42.21;100817.59;4991833;28;20050;-73
2021/03/20 06:43:40;;;;;;;11.43;6.25;;;;;;;7.95;41.15;100822.72;4991591;28;20062;-74
2021/03/20 06:46:14;;;;;;;11.35;6.55;;;;;;;8.62;40.17;100820.56;4990661;28;20054;-72
2021/03/20 06:48:42;;;;;;;12.23;6.55;;;;;;;9.31;39.21;100823.31;4992468;28;20058;-72
2021/03/20 06:51:08;;;;;;;15.93;6.65;;;;;;;10.16;38.03;100835.09;4990293;28;20081;-72
2021/03/20 06:53:41;;;;;;;11.32;6.07;;;;;;;11.60;35.60;100829.88;4992267;28;20550;-72
2021/03/20 06:56:11;;;;;;;10.00;5.68;;;;;;;13.12;33.43;100826.97;4991937;28;20053;-73
2021/03/20 06:58:39;;;;;;;9.10;5.75;;;;;;;14.26;31.96;100825.72;4991818;28;20054;-75
2021/03/20 07:01:17;;;;;;;11.23;6.40;;;;;;;15.62;30.15;100829.94;4991870;28;20062;-74
2021/03/20 07:04:04;;;;;;;13.20;6.70;;;;;;;16.85;28.73;100835.81;4992504;28;20066;-73
2021/03/20 07:06:40;;;;;;;9.13;5.88;;;;;;;17.97;27.45;100841.75;4948810;28;20050;-73
2021/03/20 07:09:08;;;;;;;10.95;6.30;;;;;;;18.62;26.51;100838.69;4991450;28;20149;-73
2021/03/20 07:11:37;;;;;;;10.82;5.78;;;;;;;18.99;25.90;100840.75;4989897;28;20073;-73
2021/03/20 07:14:07;;;;;;;10.63;5.22;;;;;;;19.23;24.83;100842.78;4991238;28;20089;-73
2021/03/20 07:16:52;;;;;;;7.88;5.18;;;;;;;19.29;24.83;100837.06;4990686;28;20158;-73
2021/03/20 07:19:19;;;;;;;11.20;4.32;;;;;;;19.64;23.67;100840.94;4990626;28;20046;-72
2021/03/20 07:21:46;;;;;;;11.25;5.40;;;;;;;20.00;23.06;100845.59;4989963;28;20106;-74
2021/03/20 07:24:16;;;;;;;8.05;5.30;;;;;;;20.92;21.82;100844.50;4993098;28;20081;-73
2021/03/20 07:26:55;;;;;;;7.80;5.23;;;;;;;21.17;21.43;100848.91;4993952;28;20046;-73
2021/03/20 07:29:38;;;;;;;8.50;5.30;;;;;;;21.51;21.45;100850.84;4994353;28;20090;-77
2021/03/20 07:32:05;;;;;;;8.27;5.00;;;;;;;22.04;20.42;100861.97;4994151;28;20553;-73
2021/03/20 07:34:34;;;;;;;9.43;6.00;;;;;;;22.01;19.95;100853.31;4994003;28;20122;-72
2021/03/20 07:37:14;;;;;;;11.10;5.00;;;;;;;21.69;20.18;100861.09;4992935;28;20196;-73
2021/03/20 07:39:44;;;;;;;9.77;5.18;;;;;;;21.73;19.58;100857.22;4990064;28;20050;-72
2021/03/20 07:42:26;;;;;;;9.05;5.20;;;;;;;22.24;19.41;100862.25;4992841;28;20602;-73
2021/03/20 07:44:55;;;;;;;8.90;4.80;;;;;;;22.56;18.61;100865.09;4992566;28;20133;-74
2021/03/20 07:47:23;;;;;;;9.52;5.30;;;;;;;22.89;18.27;100866.94;4992542;28;20057;-72
2021/03/20 07:50:07;;;;;;;18.80;10.52;;;;;;;23.75;17.81;100864.34;4991982;28;20143;-71
2021/03/20 07:52:34;;;;;;;16.83;10.00;;;;;;;23.86;17.43;100866.09;4988518;28;20441;-71
2021/03/20 07:55:07;;;;;;;13.68;7.07;;;;;;;23.78;17.13;100864.06;4992029;28;20560;-71
2021/03/20 07:57:34;;;;;;;7.88;5.47;;;;;;;24.11;16.82;100867.53;4991365;28;20104;-71
2021/03/20 08:00:03;;;;;;;6.80;4.63;;;;;;;24.47;16.23;100872.44;4992647;28;20054;-72
2021/03/20 08:02:33;;;;;;;6.35;4.13;;;;;;;24.26;15.92;100875.13;4991683;28;20158;-71
2021/03/20 08:05:02;;;;;;;8.80;4.32;;;;;;;24.46;15.85;100876.13;4992191;28;20069;-72
2021/03/20 08:07:34;;;;;;;8.50;4.20;;;;;;;24.78;15.54;100883.16;4991945;28;20082;-72
2021/03/20 08:10:20;;;;;;;10.18;5.22;;;;;;;24.95;15.14;100882.53;4992118;28;20243;-73
2021/03/20 08:12:56;;;;;;;7.63;5.40;;;;;;;23.13;16.38;100891.72;4990830;28;20050;-72
2021/03/20 08:15:27;;;;;;;8.98;5.35;;;;;;;22.55;16.77;100888.28;4992311;28;20054;-72
2021/03/20 08:17:54;;;;;;;14.23;5.35;;;;;;;23.21;15.95;100891.94;4992982;28;20048;-73
2021/03/20 08:20:21;;;;;;;5.32;4.10;;;;;;;23.30;15.79;100891.19;4992315;28;20126;-72
2021/03/20 08:23:03;;;;;;;5.88;3.63;;;;;;;24.12;15.07;100883.47;4991863;28;20070;-71
2021/03/20 08:25:53;;;;;;;10.25;4.45;;;;;;;19.75;18.08;100888.09;4992480;28;20070;-72
2021/03/20 08:28:37;;;;;;;6.90;4.55;;;;;;;21.01;16.96;100890.00;4994068;28;20062;-73
2021/03/20 08:31:09;;;;;;;6.47;3.40;;;;;;;21.48;16.37;100891.09;4993408;28;20054;-72
2021/03/20 08:33:57;;;;;;;6.47;4.00;;;;;;;21.69;16.37;100893.97;4993701;28;20072;-72
2021/03/20 08:36:36;;;;;;;4.93;3.58;;;;;;;22.45;15.46;100901.50;4992596;28;20042;-72
2021/03/20 08:39:15;;;;;;;7.43;3.72;;;;;;;23.78;14.50;100898.03;4997759;28;20050;-71
2021/03/20 08:41:54;;;;;;;7.40;4.00;;;;;;;24.41;14.01;100902.47;4996144;28;20125;-71
2021/03/20 08:44:50;;;;;;;4.82;3.30;;;;;;;21.82;15.79;100896.56;4992799;28;20058;-71
2021/03/20 08:47:43;;;;;;;6.88;3.78;;;;;;;19.84;17.65;100902.63;4992612;28;20054;-72
2021/03/20 08:50:19;;;;;;;6.85;3.42;;;;;;;17.89;18.29;100897.03;4991327;28;20046;-75
2021/03/20 08:52:56;;;;;;;7.55;4.00;;;;;;;17.57;18.72;100898.88;4990659;28;20118;-74
2021/03/20 08:55:48;;;;;;;5.82;3.60;;;;;;;16.32;19.40;100900.38;4988709;28;20042;-74
2021/03/20 08:58:37;;;;;;;6.07;3.53;;;;;;;13.95;21.25;100900.88;4992059;28;20376;-75
2021/03/20 09:01:09;;;;;;;6.57;3.65;;;;;;;12.71;22.56;100907.50;4988188;28;20066;-73
2021/03/20 09:03:38;;;;;;;;;;;;;;;12.57;23.05;100914.16;4991931;28;20078;-74
2021/03/20 09:06:20;;;;;;;7.28;3.78;;;;;;;14.59;21.11;100910.47;4991889;28;20013;-72
2021/03/20 09:08:49;;;;;;;4.63;2.80;;;;;;;14.63;20.17;100915.53;4992550;28;20576;-72
2021/03/20 09:11:33;;;;;;;5.35;3.45;;;;;;;13.69;21.05;100912.47;4990668;28;20143;-72
2021/03/20 09:14:06;;;;;;;6.10;3.28;;;;;;;18.05;17.21;100908.47;4992843;28;20141;-73
2021/03/20 09:16:37;;;;;;;4.78;3.25;;;;;;;16.01;18.64;100912.53;4991785;28;20054;-74
2021/03/20 09:19:08;;;;;;;5.35;3.20;;;;;;;13.34;21.14;100915.69;4991854;28;20181;-74
2021/03/20 09:21:38;;;;;;;7.60;3.40;;;;;;;11.79;22.52;100912.44;4993315;28;20141;-74
2021/03/20 09:24:08;;;;;;;6.65;2.92;;;;;;;10.88;22.90;100915.25;4988968;28;20630;-72
2021/03/20 09:26:40;;;;;;;5.30;2.90;;;;;;;10.13;23.49;100924.28;4991483;28;20502;-72
2021/03/20 09:29:14;;;;;;;5.82;3.45;;;;;;;9.48;24.31;100912.75;4991979;28;20104;-72
2021/03/20 09:32:06;;;;;;;8.43;4.28;;;;;;;8.96;25.08;100917.44;4989705;28;20442;-72
2021/03/20 09:34:40;;;;;;;10.20;4.63;;;;;;;8.97;24.92;100927.00;4990159;28;20054;-73
2021/03/20 09:37:27;;;;;;;6.82;3.47;;;;;;;9.72;24.29;100923.53;4990426;28;20494;-73
2021/03/20 09:39:55;;;;;;;6.80;3.13;;;;;;;9.92;23.72;100925.69;4991707;28;20690;-74
2021/03/20 09:42:35;;;;;;;5.75;3.47;;;;;;;9.17;24.43;100935.28;4990451;28;20050;-74
2021/03/20 09:45:04;;;;;;;6.53;3.75;;;;;;;8.72;25.18;100935.31;4991313;28;20050;-74
2021/03/20 09:47:47;;;;;;;6.97;3.85;;;;;;;8.77;25.18;100943.97;4990588;28;20081;-75
2021/03/20 09:50:36;;;;;;;6.30;3.38;;;;;;;9.68;23.94;100940.22;4991728;28;20137;-77
2021/03/20 09:53:33;;;;;;;4.93;3.22;;;;;;;10.89;22.50;100943.22;4991238;28;20070;-78
2021/03/20 09:56:31;;;;;;;7.32;3.60;;;;;;;10.13;23.63;100935.63;4994220;28;20054;-81
2021/03/20 09:58:59;;;;;;;6.95;3.92;;;;;;;9.90;24.20;100936.19;4992183;28;20088;-79
2021/03/20 10:01:46;;;;;;;6.20;3.35;;;;;;;9.63;24.61;100939.47;4991673;28;20137;-81
2021/03/20 10:04:31;;;;;;;9.30;3.45;;;;;;;9.31;24.90;100943.69;4996087;28;20242;-79
2021/03/20 10:07:28;;;;;;;6.40;3.53;;;;;;;9.15;25.16;100951.00;4989921;28;20050;-79
2021/03/20 10:09:58;;;;;;;8.93;3.85;;;;;;;8.99;25.07;100946.13;4992030;28;20050;-79
2021/03/20 10:12:28;;;;;;;4.93;3.45;;;;;;;8.77;25.23;100945.72;4995647;28;20054;-78
2021/03/20 10:15:31;;;;;;;6.15;3.90;;;;;;;8.68;25.48;100954.56;4992965;28;20133;-79
2021/03/20 10:18:26;;;;;;;6.05;3.33;;;;;;;8.69;25.03;100943.22;4967355;28;20055;-80
2021/03/20 10:21:03;;;;;;;11.95;5.70;;;;;;;8.92;25.01;100945.38;4973604;28;20081;-82
2021/03/20 10:23:42;;;;;;;10.30;5.32;;;;;;;9.33;24.97;100946.25;4971013;28;20047;-81
2021/03/20 10:26:20;;;;;;;9.60;5.47;;;;;;;9.89;24.66;100947.56;4969868;28;20038;-80
2021/03/20 10:28:50;;;;;;;8.45;5.50;;;;;;;10.27;24.63;100945.78;4970250;28;20510;-83
2021/03/20 10:31:17;;;;;;;5.97;4.60;;;;;;;10.62;23.82;100950.97;4971595;28;20051;-81
2021/03/20 10:33:44;;;;;;;11.15;5.28;;;;;;;10.86;23.99;100944.16;4971951;28;20066;-80
2021/03/20 10:36:25;;;;;;;8.57;4.07;;;;;;;10.71;24.14;100944.59;4970798;28;20059;-81
2021/03/20 10:38:52;;;;;;;5.45;3.30;;;;;;;10.54;24.31;100946.81;4969768;28;20066;-80
2021/03/20 10:41:23;;;;;;;6.25;3.40;;;;;;;9.91;25.00;100948.38;4970415;28;20065;-81
2021/03/20 10:43:52;;;;;;;4.85;2.80;;;;;;;9.34;24.83;100946.22;4973307;28;20066;-84
2021/03/20 10:46:23;;;;;;;6.20;3.28;;;;;;;8.86;25.72;100951.59;4970765;28;20094;-83
2021/03/20 10:48:51;;;;;;;4.18;3.03;;;;;;;8.44;25.64;100952.44;4972010;28;20071;-82
2021/03/20 10:51:19;;;;;;;4.97;3.00;;;;;;;7.96;25.95;100947.16;4968838;28;20133;-79
2021/03/20 10:53:47;;;;;;;4.82;2.80;;;;;;;7.97;25.51;100956.69;4971666;28;20070;-79
2021/03/20 10:56:36;;;;;;;5.28;3.00;;;;;;;8.22;25.14;100941.47;4972011;28;20133;-83
2021/03/20 10:59:12;;;;;;;7.60;3.35;;;;;;;8.49;24.87;100946.22;4967324;28;20066;-81
2021/03/20 11:01:39;;;;;;;9.43;3.83;;;;;;;8.47;25.13;100942.78;4975124;28;20085;-82
2021/03/20 11:04:05;;;;;;;4.20;3.03;;;;;;;8.42;24.97;100949.84;4972997;28;20055;-82
2021/03/20 11:06:32;;;;;;;6.70;3.47;;;;;;;8.23;25.33;100944.06;4975092;28;20082;-84
2021/03/20 11:09:15;;;;;;;5.90;3.05;;;;;;;7.95;25.86;100942.81;4975519;28;20529;-82
2021/03/20 11:11:43;;;;;;;5.43;3.10;;;;;;;8.07;25.34;100937.38;4971741;28;20137;-81
2021/03/20 11:14:12;;;;;;;5.32;3.53;;;;;;;8.27;24.96;100929.19;4974652;28;20075;-81
2021/03/20 11:16:47;;;;;;;6.25;3.13;;;;;;;8.16;25.98;100934.63;4984610;28;20081;-80
2021/03/20 11:19:24;;;;;;;6.22;3.60;;;;;;;8.20;25.80;100933.66;4995085;28;20128;-81
2021/03/20 11:21:57;;;;;;;4.28;3.00;;;;;;;8.31;25.76;100935.22;4994822;28;20046;-81
2021/03/20 11:24:28;;;;;;;4.72;3.35;;;;;;;8.00;25.72;100933.16;4995029;28;20058;-81
2021/03/20 11:26:56;;;;;;;6.33;3.27;;;;;;;7.56;25.72;100937.34;4987865;28;20498;-80
2021/03/20 11:29:26;;;;;;;5.57;3.67;;;;;;;7.24;25.99;100934.31;4995759;28;20141;-83
2021/03/20 11:31:57;;;;;;;5.40;3.63;;;;;;;7.16;25.79;100933.56;4994881;28;20224;-75
2021/03/20 11:34:32;;;;;;;6.80;3.72;;;;;;;7.12;25.96;100926.66;4994152;28;20054;-74
2021/03/20 11:37:00;;;;;;;4.88;3.55;;;;;;;7.12;26.06;100926.66;4992481;28;20506;-76
2021/03/20 11:39:27;;;;;;;8.20;4.40;;;;;;;7.07;26.06;100923.25;4973441;28;20046;-75
2021/03/20 11:42:04;;;;;;;7.20;3.80;;;;;;;7.06;26.42;100916.31;4980964;28;20077;-75
2021/03/20 11:44:32;;;;;;;7.93;3.80;;;;;;;7.09;26.30;100916.28;4993769;28;20086;-75
2021/03/20 11:47:01;;;;;;;10.00;4.90;;;;;;;7.08;26.01;100907.59;4994820;28;20050;-76
2021/03/20 11:49:42;;;;;;;7.45;3.35;;;;;;;6.94;25.85;100912.13;5001531;28;20089;-75
2021/03/20 11:52:16;;;;;;;6.93;3.13;;;;;;;6.88;25.90;100915.69;5001977;28;20050;-75
2021/03/20 11:54:42;;;;;;;6.82;3.63;;;;;;;6.83;25.95;100914.00;4998331;28;20141;-75